createdAt,value
2023-04-17T00:00:10.284Z,1.50
2023-04-17T00:02:40.480Z,1.87
2023-04-17T00:05:10.814Z,2.33
2023-04-17T00:07:41.282Z,2.03
2023-04-17T00:10:12.271Z,2.27
2023-04-17T00:12:41.970Z,1.90
2023-04-17T00:15:11.756Z,1.80
2023-04-17T00:17:41.315Z,1.80
2023-04-17T00:20:11.180Z,1.60
2023-04-17T00:22:40.821Z,1.40
2023-04-17T00:25:14.986Z,2.17
2023-04-17T00:27:44.524Z,1.53
2023-04-17T00:30:14.224Z,1.90
2023-04-17T00:32:43.805Z,2.10
2023-04-17T00:35:13.450Z,2.27
2023-04-17T00:37:42.950Z,2.70
2023-04-17T00:40:13.576Z,2.33
2023-04-17T00:42:43.168Z,2.40
2023-04-17T00:45:12.864Z,2.07
2023-04-17T00:47:43.156Z,2.47
2023-04-17T00:50:13.436Z,2.10
2023-04-17T00:52:43.447Z,1.83
2023-04-17T00:55:15.015Z,1.90
2023-04-17T00:57:45.691Z,1.50
2023-04-17T01:00:17.078Z,1.40
2023-04-17T01:02:48.428Z,2.13
2023-04-17T01:05:18.052Z,2.00
2023-04-17T01:07:47.724Z,1.80
2023-04-17T01:10:17.243Z,1.60
2023-04-17T01:12:51.510Z,1.93
2023-04-17T01:15:20.999Z,1.70
2023-04-17T01:17:50.517Z,2.03
2023-04-17T01:20:20.417Z,1.80
2023-04-17T01:22:53.821Z,2.23
2023-04-17T01:25:23.315Z,1.67
2023-04-17T01:27:52.881Z,1.70
2023-04-17T01:30:22.507Z,1.43
2023-04-17T01:32:53.536Z,1.57
2023-04-17T01:35:23.296Z,1.73
2023-04-17T01:37:52.781Z,1.53
2023-04-17T01:40:22.267Z,1.50
2023-04-17T01:42:51.790Z,2.07
2023-04-17T01:45:21.406Z,3.13
2023-04-17T01:47:51.013Z,1.97
2023-04-17T01:50:20.617Z,1.70
2023-04-17T01:52:50.186Z,2.13
2023-04-17T01:55:19.747Z,2.13
2023-04-17T01:57:51.936Z,1.70
2023-04-17T02:00:23.025Z,1.80
2023-04-17T02:02:52.762Z,1.60
2023-04-17T02:05:22.409Z,2.00
2023-04-17T02:07:52.412Z,2.10
2023-04-17T02:10:22.015Z,2.10
2023-04-17T02:12:51.517Z,2.30
2023-04-17T02:15:21.001Z,2.50
2023-04-17T02:17:50.511Z,2.30
2023-04-17T02:20:19.991Z,2.30
2023-04-17T02:22:49.479Z,2.90
2023-04-17T02:25:19.039Z,2.30
2023-04-17T02:27:48.941Z,2.30
2023-04-17T02:30:18.412Z,2.13
2023-04-17T02:32:48.053Z,1.87
2023-04-17T02:35:17.546Z,1.70
2023-04-17T02:37:47.431Z,2.00
2023-04-17T02:40:17.633Z,1.53
2023-04-17T02:42:47.120Z,2.20
2023-04-17T02:45:16.667Z,2.60
2023-04-17T02:47:46.269Z,2.17
2023-04-17T02:50:15.748Z,1.73
2023-04-17T02:52:45.253Z,2.40
2023-04-17T02:55:14.742Z,1.93
2023-04-17T02:57:44.241Z,2.20
2023-04-17T03:00:15.131Z,2.50
2023-04-17T03:02:45.062Z,1.90
2023-04-17T03:05:16.479Z,1.70
2023-04-17T03:07:46.012Z,2.13
2023-04-17T03:10:15.746Z,1.83
2023-04-17T03:12:45.516Z,2.07
2023-04-17T03:15:15.067Z,2.10
2023-04-17T03:17:44.615Z,2.13
2023-04-17T03:20:16.054Z,1.73
2023-04-17T03:22:45.653Z,2.10
2023-04-17T03:25:15.406Z,2.90
2023-04-17T03:27:44.906Z,1.87
2023-04-17T03:30:14.527Z,1.80
2023-04-17T03:32:44.148Z,2.07
2023-04-17T03:35:13.634Z,1.80
2023-04-17T03:37:43.132Z,1.83
2023-04-17T03:40:12.829Z,1.80
2023-04-17T03:42:42.336Z,1.83
2023-04-17T03:45:12.253Z,1.87
2023-04-17T03:47:41.894Z,1.90
2023-04-17T03:50:11.722Z,1.63
2023-04-17T03:52:41.295Z,1.50
2023-04-17T03:55:11.512Z,1.73
2023-04-17T03:57:41.105Z,1.57
2023-04-17T04:00:11.234Z,1.63
2023-04-17T04:02:40.942Z,1.73
2023-04-17T04:05:10.678Z,1.90
2023-04-17T04:07:40.214Z,1.87
2023-04-17T04:10:10.285Z,2.10
2023-04-17T04:12:39.822Z,2.00
2023-04-17T04:15:10.562Z,1.67
2023-04-17T04:17:40.151Z,1.93
2023-04-17T04:20:10.218Z,1.50
2023-04-17T04:22:39.703Z,1.80
2023-04-17T04:25:10.378Z,1.37
2023-04-17T04:27:39.863Z,1.67
2023-04-17T04:30:10.914Z,1.90
2023-04-17T04:32:40.404Z,1.70
2023-04-17T04:35:10.896Z,1.70
2023-04-17T04:37:42.281Z,1.67
2023-04-17T04:40:12.407Z,1.63
2023-04-17T04:42:46.830Z,1.70
2023-04-17T04:45:16.972Z,1.47
2023-04-17T04:47:46.498Z,1.93
2023-04-17T04:50:16.401Z,1.77
2023-04-17T04:52:46.140Z,2.17
2023-04-17T04:55:15.696Z,2.00
2023-04-17T04:57:45.287Z,1.73
2023-04-17T05:00:17.346Z,2.00
2023-04-17T05:02:47.037Z,2.33
2023-04-17T05:05:16.683Z,2.40
2023-04-17T05:07:46.435Z,2.30
2023-04-17T05:10:16.090Z,1.90
2023-04-17T05:12:45.571Z,2.23
2023-04-17T05:15:15.425Z,2.37
2023-04-17T05:17:45.018Z,2.20
2023-04-17T05:20:15.334Z,2.60
2023-04-17T05:22:45.246Z,2.27
2023-04-17T05:25:16.467Z,2.37
2023-04-17T05:27:46.300Z,2.30
2023-04-17T05:30:16.627Z,2.33
2023-04-17T05:32:46.314Z,2.00
2023-04-17T05:35:15.998Z,2.70
2023-04-17T05:37:45.659Z,2.20
2023-04-17T05:40:15.448Z,2.55
2023-04-17T05:42:44.943Z,2.70
2023-04-17T05:45:22.243Z,2.30
2023-04-17T05:47:52.032Z,3.70
2023-04-17T05:50:21.642Z,3.20
2023-04-17T05:52:51.148Z,3.70
2023-04-17T05:55:21.113Z,3.27
2023-04-17T05:57:50.765Z,4.57
2023-04-17T06:00:22.189Z,3.13
2023-04-17T06:02:52.233Z,4.00
2023-04-17T06:05:23.116Z,3.60
2023-04-17T06:07:52.651Z,3.50
2023-04-17T06:10:22.731Z,4.33
2023-04-17T06:12:52.225Z,3.47
2023-04-17T06:15:21.832Z,5.33
2023-04-17T06:17:51.716Z,4.00
2023-04-17T06:20:21.351Z,3.42
2023-04-17T06:22:50.883Z,4.10
2023-04-17T06:25:20.467Z,4.63
2023-04-17T06:27:50.054Z,4.73
2023-04-17T06:30:19.648Z,6.10
2023-04-17T06:32:49.253Z,6.97
2023-04-17T06:35:18.785Z,5.67
2023-04-17T06:37:48.270Z,5.00
2023-04-17T06:40:17.857Z,4.40
2023-04-17T06:42:47.383Z,3.77
2023-04-17T06:45:16.896Z,4.03
2023-04-17T06:47:48.267Z,4.10
2023-04-17T06:50:18.281Z,4.70
2023-04-17T06:52:50.297Z,5.57
2023-04-17T06:55:20.091Z,5.30
2023-04-17T06:57:49.598Z,4.80
2023-04-17T07:00:19.628Z,4.80
2023-04-17T07:02:49.255Z,4.40
2023-04-17T07:05:18.915Z,4.33
2023-04-17T07:07:48.996Z,6.67
2023-04-17T07:10:19.516Z,5.63
2023-04-17T07:12:49.127Z,4.80
2023-04-17T07:15:18.670Z,8.37
2023-04-17T07:17:48.213Z,5.37
2023-04-17T07:20:17.732Z,5.13
2023-04-17T07:22:47.614Z,5.10
2023-04-17T07:25:17.171Z,5.60
2023-04-17T07:27:46.707Z,5.20
2023-04-17T07:30:16.246Z,5.40
2023-04-17T07:32:45.807Z,5.07
2023-04-17T07:35:15.382Z,4.27
2023-04-17T07:37:44.870Z,4.47
2023-04-17T07:40:14.546Z,4.72
2023-04-17T07:42:44.086Z,4.37
2023-04-17T07:45:13.757Z,7.70
2023-04-17T07:47:43.265Z,8.37
2023-04-17T07:50:12.957Z,6.13
2023-04-17T07:52:42.530Z,5.60
2023-04-17T07:55:12.097Z,5.20
2023-04-17T07:57:42.929Z,5.40
2023-04-17T08:00:14.556Z,5.60
2023-04-17T08:02:45.107Z,4.87
2023-04-17T08:05:14.742Z,6.80
2023-04-17T08:07:44.281Z,5.30
2023-04-17T08:10:13.791Z,5.73
2023-04-17T08:12:43.360Z,6.07
2023-04-17T08:15:13.127Z,4.53
2023-04-17T08:17:42.695Z,5.17
2023-04-17T08:20:13.579Z,4.67
2023-04-17T08:22:46.023Z,4.20
2023-04-17T08:25:15.905Z,4.63
2023-04-17T08:27:45.792Z,4.73
2023-04-17T08:30:18.801Z,3.50
2023-04-17T08:32:50.541Z,3.83
2023-04-17T08:35:20.892Z,4.57
2023-04-17T08:37:50.453Z,4.33
2023-04-17T08:40:21.602Z,4.43
2023-04-17T08:42:52.815Z,5.00
2023-04-17T08:45:24.771Z,4.60
2023-04-17T08:47:54.343Z,3.80
2023-04-17T08:50:23.862Z,3.70
2023-04-17T08:52:53.939Z,4.30
2023-04-17T08:55:29.712Z,3.20
2023-04-17T08:58:04.487Z,3.73
2023-04-17T09:00:38.201Z,3.87
2023-04-17T09:03:13.819Z,4.20
2023-04-17T09:05:48.590Z,4.17
2023-04-17T09:08:26.144Z,6.27
2023-04-17T09:10:57.163Z,4.23
2023-04-17T09:13:29.467Z,4.23
2023-04-17T09:16:09.180Z,4.77
2023-04-17T09:18:42.615Z,4.57
2023-04-17T09:21:13.177Z,4.00
2023-04-17T09:23:55.442Z,4.70
2023-04-17T09:26:28.002Z,4.50
2023-04-17T09:29:09.822Z,4.20
2023-04-17T09:31:45.110Z,4.07
2023-04-17T09:34:16.665Z,3.67
2023-04-17T09:36:46.723Z,4.10
2023-04-17T09:39:26.610Z,5.33
2023-04-17T09:42:06.166Z,4.50
2023-04-17T09:44:37.338Z,4.00
2023-04-17T09:47:07.705Z,3.90
2023-04-17T09:49:50.445Z,3.87
2023-04-17T09:52:24.746Z,4.03
2023-04-17T09:54:56.295Z,3.13
2023-04-17T09:57:26.459Z,3.00
2023-04-17T09:59:58.332Z,3.40
2023-04-17T10:02:31.063Z,3.63
2023-04-17T10:05:02.495Z,3.17
2023-04-17T10:07:35.400Z,3.30
2023-04-17T10:10:07.632Z,4.63
2023-04-17T10:12:40.539Z,4.03
2023-04-17T10:15:12.721Z,4.10
2023-04-17T10:17:42.345Z,4.00
2023-04-17T10:20:22.762Z,3.87
2023-04-17T10:22:56.476Z,3.67
2023-04-17T10:25:29.015Z,3.70
2023-04-17T10:28:04.705Z,3.40
2023-04-17T10:30:55.555Z,3.80
2023-04-17T10:33:27.348Z,3.60
2023-04-17T10:35:56.972Z,3.20
2023-04-17T10:38:37.378Z,3.37
2023-04-17T10:41:11.908Z,3.30
2023-04-17T10:43:46.194Z,4.00
2023-04-17T10:46:16.464Z,4.60
2023-04-17T10:48:54.205Z,3.97
2023-04-17T10:51:28.849Z,3.33
2023-04-17T10:54:06.116Z,3.73
2023-04-17T10:56:48.867Z,3.80
2023-04-17T10:59:21.118Z,4.07
2023-04-17T11:01:55.895Z,3.77
2023-04-17T11:04:34.341Z,3.33
2023-04-17T11:07:04.105Z,3.67
2023-04-17T11:09:33.595Z,4.10
2023-04-17T11:12:03.286Z,4.10
2023-04-17T11:14:33.477Z,3.57
2023-04-17T11:17:03.313Z,3.20
2023-04-17T11:19:34.410Z,3.90
2023-04-17T11:22:03.916Z,4.23
2023-04-17T11:24:33.999Z,3.30
2023-04-17T11:27:04.052Z,3.57
2023-04-17T11:29:33.718Z,3.70
2023-04-17T11:32:03.585Z,3.23
2023-04-17T11:34:33.098Z,2.83
2023-04-17T11:37:03.539Z,3.40
2023-04-17T11:39:35.845Z,4.20
2023-04-17T11:42:05.675Z,3.70
2023-04-17T11:44:35.654Z,4.03
2023-04-17T11:47:05.954Z,4.30
2023-04-17T11:49:39.398Z,4.67
2023-04-17T11:52:08.892Z,5.23
2023-04-17T11:54:39.910Z,5.13
2023-04-17T11:57:13.309Z,4.27
2023-04-17T11:59:45.532Z,4.80
2023-04-17T12:02:16.660Z,5.13
2023-04-17T12:04:46.489Z,5.10
2023-04-17T12:07:27.259Z,4.30
2023-04-17T12:09:58.398Z,4.93
2023-04-17T12:12:29.153Z,3.87
2023-04-17T12:14:59.194Z,4.70
2023-04-17T12:17:28.769Z,4.50
2023-04-17T12:19:59.899Z,4.50
2023-04-17T12:22:30.403Z,5.30
2023-04-17T12:25:00.213Z,4.97
2023-04-17T12:27:29.722Z,4.33
2023-04-17T12:29:59.234Z,4.17
2023-04-17T12:32:28.771Z,4.10
2023-04-17T12:34:58.736Z,3.80
2023-04-17T12:37:28.231Z,4.43
2023-04-17T12:39:59.402Z,4.27
2023-04-17T12:42:31.429Z,3.97
2023-04-17T12:45:00.144Z,4.47
2023-04-17T12:47:30.007Z,3.57
2023-04-17T12:49:59.574Z,3.70
2023-04-17T12:52:29.166Z,4.73
2023-04-17T12:54:59.951Z,4.50
2023-04-17T12:57:30.460Z,4.10
2023-04-17T12:59:59.959Z,4.13
2023-04-17T13:02:29.692Z,4.17
2023-04-17T13:04:59.347Z,5.40
2023-04-17T13:07:29.419Z,3.67
2023-04-17T13:09:58.914Z,3.40
2023-04-17T13:12:28.529Z,3.77
2023-04-17T13:14:58.825Z,4.90
2023-04-17T13:17:28.376Z,4.03
2023-04-17T13:19:57.950Z,4.40
2023-04-17T13:22:27.441Z,4.37
2023-04-17T13:24:56.966Z,4.43
2023-04-17T13:27:26.588Z,4.80
2023-04-17T13:29:57.408Z,4.67
2023-04-17T13:32:26.979Z,5.00
2023-04-17T13:34:58.604Z,4.20
2023-04-17T13:37:27.728Z,4.50
2023-04-17T13:39:57.236Z,4.90
2023-04-17T13:42:26.931Z,4.90
2023-04-17T13:44:56.551Z,4.07
2023-04-17T13:47:26.301Z,3.80
2023-04-17T13:49:56.520Z,3.70
2023-04-17T13:52:26.094Z,3.60
2023-04-17T13:54:55.614Z,3.10
2023-04-17T13:57:25.180Z,2.60
2023-04-17T13:59:54.690Z,3.20
2023-04-17T14:02:24.560Z,3.97
2023-04-17T14:04:54.351Z,3.23
2023-04-17T14:07:23.927Z,4.13
2023-04-17T14:09:53.426Z,3.53
2023-04-17T14:12:23.468Z,3.07
2023-04-17T14:14:52.971Z,3.50
2023-04-17T14:17:22.595Z,4.00
2023-04-17T14:19:52.932Z,3.63
2023-04-17T14:22:22.495Z,3.73
2023-04-17T14:24:52.013Z,4.60
2023-04-17T14:27:21.536Z,4.63
2023-04-17T14:29:51.106Z,3.80
2023-04-17T14:32:20.703Z,3.80
2023-04-17T14:34:50.270Z,3.70
2023-04-17T14:37:19.966Z,3.20
2023-04-17T14:39:49.478Z,3.23
2023-04-17T14:42:18.965Z,3.10
2023-04-17T14:44:48.494Z,4.20
2023-04-17T14:47:17.986Z,3.50
2023-04-17T14:49:47.592Z,3.03
2023-04-17T14:52:17.074Z,4.47
2023-04-17T14:54:46.646Z,3.40
2023-04-17T14:57:16.292Z,4.40
2023-04-17T14:59:45.849Z,4.07
2023-04-17T15:02:15.483Z,3.50
2023-04-17T15:04:54.083Z,2.37
2023-04-17T15:07:23.998Z,2.90
2023-04-17T15:09:55.343Z,2.70
2023-04-17T15:12:24.680Z,2.80
2023-04-17T15:14:55.826Z,2.67
2023-04-17T15:17:25.377Z,2.30
2023-04-17T15:19:56.535Z,3.33
2023-04-17T15:22:27.595Z,2.73
2023-04-17T15:24:57.184Z,2.23
2023-04-17T15:27:26.667Z,2.80
2023-04-17T15:29:56.192Z,2.50
2023-04-17T15:32:26.713Z,2.03
2023-04-17T15:34:56.353Z,2.30
2023-04-17T15:37:25.853Z,2.40
2023-04-17T15:39:55.381Z,2.33
2023-04-17T15:42:24.955Z,2.73
2023-04-17T15:44:55.555Z,1.97
2023-04-17T15:47:25.107Z,2.67
2023-04-17T15:49:54.613Z,2.90
2023-04-17T15:52:24.203Z,2.83
2023-04-17T15:54:53.709Z,2.60
2023-04-17T15:57:23.674Z,2.20
2023-04-17T15:59:53.173Z,3.20
2023-04-17T16:02:22.781Z,3.40
2023-04-17T16:04:52.486Z,2.83
2023-04-17T16:07:22.002Z,2.40
2023-04-17T16:09:51.690Z,2.20
2023-04-17T16:12:21.196Z,1.80
2023-04-17T16:14:51.114Z,2.67
2023-04-17T16:17:20.834Z,2.90
2023-04-17T16:19:50.921Z,2.37
2023-04-17T16:22:21.165Z,2.50
2023-04-17T16:24:50.725Z,2.40
2023-04-17T16:27:20.829Z,2.57
2023-04-17T16:29:50.394Z,2.40
2023-04-17T16:32:20.752Z,2.17
2023-04-17T16:34:50.424Z,2.30
2023-04-17T16:37:20.065Z,2.10
2023-04-17T16:39:50.840Z,2.00
2023-04-17T16:42:20.367Z,2.40
2023-04-17T16:44:50.496Z,2.50
2023-04-17T16:47:20.108Z,1.70
2023-04-17T16:49:49.684Z,2.30
2023-04-17T16:52:19.210Z,2.17
2023-04-17T16:54:48.688Z,2.87
2023-04-17T16:57:18.224Z,2.20
2023-04-17T16:59:47.721Z,2.13
2023-04-17T17:02:17.676Z,1.50
2023-04-17T17:04:47.216Z,2.13
2023-04-17T17:07:16.744Z,2.23
2023-04-17T17:09:46.260Z,2.20
2023-04-17T17:12:15.748Z,1.70
2023-04-17T17:14:45.238Z,1.90
2023-04-17T17:17:14.765Z,3.00
2023-04-17T17:19:44.258Z,2.20
2023-04-17T17:22:13.770Z,2.27
2023-04-17T17:24:43.271Z,2.10
2023-04-17T17:27:13.256Z,5.13
2023-04-17T17:29:42.758Z,5.53
2023-04-17T17:32:12.310Z,4.10
2023-04-17T17:34:41.822Z,3.10
2023-04-17T17:37:11.324Z,3.20
2023-04-17T17:39:40.853Z,3.10
2023-04-17T17:42:10.370Z,2.53
2023-04-17T17:44:39.884Z,2.90
2023-04-17T17:47:09.584Z,2.40
2023-04-17T17:49:39.076Z,2.80
2023-04-17T17:52:09.991Z,3.53
2023-04-17T17:54:44.448Z,2.40
2023-04-17T17:57:14.036Z,2.63
2023-04-17T17:59:44.930Z,2.90
2023-04-17T18:02:14.611Z,2.47
2023-04-17T18:04:44.555Z,2.03
2023-04-17T18:07:14.197Z,2.63
2023-04-17T18:09:43.772Z,2.53
2023-04-17T18:12:13.446Z,1.77
2023-04-17T18:14:42.947Z,1.90
2023-04-17T18:17:12.441Z,1.73
2023-04-17T18:19:42.725Z,2.33
2023-04-17T18:22:12.256Z,2.13
2023-04-17T18:24:41.721Z,1.90
2023-04-17T18:27:11.306Z,2.10
2023-04-17T18:29:40.862Z,2.50
2023-04-17T18:32:10.812Z,2.60
2023-04-17T18:34:40.387Z,2.53
2023-04-17T18:37:09.888Z,2.20
2023-04-17T18:39:39.377Z,2.50
2023-04-17T18:42:08.914Z,2.00
2023-04-17T18:44:38.457Z,2.53
2023-04-17T18:47:08.064Z,3.10
2023-04-17T18:49:37.642Z,3.00
2023-04-17T18:52:07.859Z,3.43
2023-04-17T18:54:38.253Z,3.17
2023-04-17T18:57:08.103Z,2.43
2023-04-17T18:59:37.601Z,2.93
2023-04-17T19:02:08.170Z,2.87
2023-04-17T19:04:37.823Z,2.40
2023-04-17T19:07:07.338Z,2.23
2023-04-17T19:09:36.831Z,2.07
2023-04-17T19:12:06.332Z,1.80
2023-04-17T19:14:35.915Z,1.93
2023-04-17T19:17:05.518Z,3.27
2023-04-17T19:19:34.990Z,2.77
2023-04-17T19:22:04.496Z,4.13
2023-04-17T19:24:34.013Z,3.60
2023-04-17T19:27:03.528Z,3.30
2023-04-17T19:29:33.464Z,2.73
2023-04-17T19:32:03.033Z,2.80
2023-04-17T19:34:32.554Z,2.70
2023-04-17T19:37:02.072Z,2.77
2023-04-17T19:39:31.556Z,4.07
2023-04-17T19:42:01.444Z,3.70
2023-04-17T19:44:31.033Z,3.20
2023-04-17T19:47:01.082Z,2.50
2023-04-17T19:49:31.359Z,3.67
2023-04-17T19:52:01.003Z,3.30
2023-04-17T19:54:30.509Z,2.70
2023-04-17T19:57:00.093Z,2.47
2023-04-17T19:59:29.576Z,2.40
2023-04-17T20:01:59.089Z,3.23
2023-04-17T20:04:29.411Z,2.30
2023-04-17T20:06:59.092Z,3.07
2023-04-17T20:09:28.590Z,3.77
2023-04-17T20:11:58.099Z,3.10
2023-04-17T20:14:27.582Z,2.53
2023-04-17T20:16:57.116Z,3.30
2023-04-17T20:19:26.575Z,3.80
2023-04-17T20:21:56.098Z,3.00
2023-04-17T20:24:25.590Z,4.13
2023-04-17T20:26:55.112Z,3.77
2023-04-17T20:29:25.706Z,3.73
2023-04-17T20:31:55.300Z,3.40
2023-04-17T20:34:26.604Z,2.80
2023-04-17T20:36:56.219Z,3.40
2023-04-17T20:39:25.707Z,3.43
2023-04-17T20:41:55.209Z,2.17
2023-04-17T20:44:24.697Z,2.53
2023-04-17T20:46:54.337Z,2.80
2023-04-17T20:49:23.820Z,2.70
2023-04-17T20:51:53.796Z,2.00
2023-04-17T20:54:24.029Z,2.80
2023-04-17T20:56:53.525Z,2.83
2023-04-17T20:59:23.282Z,3.60
2023-04-17T21:01:53.058Z,3.27
2023-04-17T21:04:22.714Z,3.40
2023-04-17T21:06:52.210Z,3.63
2023-04-17T21:09:23.399Z,2.90
2023-04-17T21:11:53.046Z,3.10
2023-04-17T21:14:22.529Z,3.43
2023-04-17T21:16:53.756Z,3.43
2023-04-17T21:19:24.422Z,3.60
2023-04-17T21:21:54.196Z,3.20
2023-04-17T21:24:23.755Z,4.00
2023-04-17T21:26:54.981Z,3.33
2023-04-17T21:29:24.730Z,3.10
2023-04-17T21:31:55.498Z,3.60
2023-04-17T21:34:25.853Z,3.30
2023-04-17T21:36:56.034Z,3.57
2023-04-17T21:39:25.534Z,3.57
2023-04-17T21:41:55.051Z,4.13
2023-04-17T21:44:24.572Z,4.60
2023-04-17T21:46:54.085Z,3.90
2023-04-17T21:49:24.315Z,3.57
2023-04-17T21:51:53.853Z,3.40
2023-04-17T21:54:24.966Z,4.53
2023-04-17T21:56:54.939Z,3.27
2023-04-17T21:59:24.435Z,3.50
2023-04-17T22:01:54.248Z,3.30
2023-04-17T22:04:23.826Z,3.13
2023-04-17T22:06:54.269Z,4.00
2023-04-17T22:09:23.838Z,3.10
2023-04-17T22:11:53.347Z,3.00
2023-04-17T22:14:22.852Z,3.97
2023-04-17T22:16:53.268Z,3.30
2023-04-17T22:19:22.788Z,3.50
2023-04-17T22:21:52.292Z,3.40
2023-04-17T22:24:21.789Z,3.40
2023-04-17T22:26:51.283Z,3.50
2023-04-17T22:29:20.774Z,3.90
2023-04-17T22:31:51.809Z,4.63
2023-04-17T22:34:21.315Z,3.90
2023-04-17T22:36:50.826Z,2.97
2023-04-17T22:39:20.375Z,4.50
2023-04-17T22:41:49.880Z,4.30
2023-04-17T22:44:19.370Z,3.93
2023-04-17T22:46:48.886Z,3.30
2023-04-17T22:49:19.784Z,3.20
2023-04-17T22:51:49.333Z,3.97
2023-04-17T22:54:22.826Z,4.23
2023-04-17T22:56:50.341Z,3.30
2023-04-17T22:59:19.846Z,3.27
2023-04-17T23:01:49.395Z,3.75
2023-04-17T23:04:18.923Z,3.43
2023-04-17T23:06:48.432Z,3.27
2023-04-17T23:09:18.089Z,3.67
2023-04-17T23:11:47.588Z,3.57
2023-04-17T23:14:17.320Z,3.57
2023-04-17T23:16:46.816Z,3.87
2023-04-17T23:19:16.302Z,3.33
2023-04-17T23:21:45.810Z,3.30
2023-04-17T23:24:15.421Z,3.40
2023-04-17T23:26:45.336Z,3.93
2023-04-17T23:29:14.827Z,3.67
2023-04-17T23:31:45.882Z,3.50
2023-04-17T23:34:15.663Z,4.10
2023-04-17T23:36:45.369Z,4.00
2023-04-17T23:39:14.866Z,3.17
2023-04-17T23:41:44.372Z,3.20
2023-04-17T23:44:14.082Z,3.60
2023-04-17T23:46:43.846Z,3.43
2023-04-17T23:49:13.383Z,3.53
2023-04-17T23:51:42.882Z,4.47
2023-04-17T23:54:12.633Z,3.60
2023-04-17T23:56:43.658Z,2.80
2023-04-17T23:59:13.448Z,2.70
